Crouch, Illinois
Current Conditions -  °F | °C
As of 10:15 AM on Thursday 23 Oct 2014 (Local Time) from KFWC Reporting Station
Clear Clear  
Wind Chill: 53°   Ceiling: Unl
Heat Index: 53°   Visibility: 10mi
Dew Point: 43°   Wind: 8mph
Humidity: 69%   Direction: 170°S
Pressure: 30.25"   Gusts: NA
Location:  38.3069°N, 88.55°W
Report Text: KFWC 231515Z AUTO 17007KT 10SM CLR 12/06 A3025 RMK AO1 T01160061
Loading
Personal Weather Stations






























Interactive Weather Map
Tropical Storm Tracking
New forecast layout! Learn more

10-Day Weather Forecast

Advertisements
Track Severe Weather on mobile